Time;durP1;ratioP1;P1;durP2;ratioP2;P2;SDS_P1;SDS_P2;PMS_P1;PMS_P2;Temp;Humidity;BMP_temperature;BMP_pressure;BME280_temperature;BME280_humidity;BME280_pressure;Samples;Min_cycle;Max_cycle;Signal;HPM_P1;HPM_P2
2023/09/26 00:01:27;;;;;;;11.87;5.63;;;;;;;23.21;64.90;99714.56;5073029;28;20657;-67
2023/09/26 00:03:54;;;;;;;7.60;5.27;;;;;;;23.19;64.90;99714.81;5073779;28;20190;-67
2023/09/26 00:06:21;;;;;;;11.43;5.27;;;;;;;23.20;65.17;99715.66;5079030;28;20226;-67
2023/09/26 00:08:48;;;;;;;13.10;5.40;;;;;;;23.16;65.17;99718.03;5078967;28;20223;-68
2023/09/26 00:11:17;;;;;;;14.07;5.77;;;;;;;23.16;65.20;99715.34;5073604;28;20195;-68
2023/09/26 00:13:44;;;;;;;14.80;5.90;;;;;;;23.18;65.12;99717.78;5073153;28;20199;-68
2023/09/26 00:16:11;;;;;;;29.90;8.07;;;;;;;23.17;65.15;99716.16;5076994;28;20626;-67
2023/09/26 00:18:40;;;;;;;26.73;7.80;;;;;;;23.16;65.72;99723.47;5092053;28;20207;-67
2023/09/26 00:21:07;;;;;;;16.17;6.47;;;;;;;23.14;66.11;99717.53;5093257;28;20227;-68
2023/09/26 00:23:33;;;;;;;18.27;7.10;;;;;;;23.11;66.57;99719.97;5093096;28;20222;-67
2023/09/26 00:26:00;;;;;;;15.77;6.60;;;;;;;23.05;66.97;99724.56;5081295;28;20703;-68
2023/09/26 00:28:29;;;;;;;22.17;6.10;;;;;;;23.00;66.71;99731.88;5072743;28;20232;-68
2023/09/26 00:30:56;;;;;;;10.37;6.10;;;;;;;22.92;67.11;99719.69;5072972;28;20193;-68
2023/09/26 00:33:23;;;;;;;17.73;6.10;;;;;;;22.81;67.67;99722.66;5073004;28;20613;-68
2023/09/26 00:35:50;;;;;;;14.60;6.00;;;;;;;22.76;67.65;99723.47;5073219;28;20192;-68
2023/09/26 00:38:17;;;;;;;15.30;6.60;;;;;;;22.73;67.97;99721.31;5072762;28;20196;-68
2023/09/26 00:40:43;;;;;;;20.23;5.60;;;;;;;22.70;67.99;99718.31;5072478;28;20189;-69
2023/09/26 00:43:10;;;;;;;14.00;5.93;;;;;;;22.70;68.41;99715.63;5072746;28;20251;-69
2023/09/26 00:45:38;;;;;;;19.27;7.00;;;;;;;22.66;68.51;99734.28;5078954;28;20256;-69
2023/09/26 00:48:06;;;;;;;16.00;6.27;;;;;;;22.61;68.92;99717.19;5092202;28;20196;-67
2023/09/26 00:50:33;;;;;;;10.80;5.87;;;;;;;22.60;69.16;99727.25;5092183;28;20647;-68
2023/09/26 00:53:00;;;;;;;10.77;6.50;;;;;;;22.57;69.40;99727.78;5092911;28;20187;-68
2023/09/26 00:55:27;;;;;;;13.37;5.63;;;;;;;22.50;69.57;99726.41;5086267;28;20218;-69
2023/09/26 00:57:55;;;;;;;11.17;6.33;;;;;;;22.45;70.24;99734.47;5071984;28;20684;-68
2023/09/26 01:00:25;;;;;;;10.60;6.27;;;;;;;22.42;70.14;99730.41;5072146;28;20220;-68
2023/09/26 01:02:53;;;;;;;11.47;6.43;;;;;;;22.35;70.23;99727.16;5072351;28;20245;-68
2023/09/26 01:05:20;;;;;;;14.83;5.80;;;;;;;22.29;70.28;99725.50;5075374;28;20196;-68
2023/09/26 01:07:47;;;;;;;19.20;8.00;;;;;;;22.25;70.89;99726.31;5086830;28;20185;-68
2023/09/26 01:10:14;;;;;;;21.10;8.00;;;;;;;22.25;70.68;99729.81;5072027;28;20694;-68
2023/09/26 01:12:41;;;;;;;14.30;8.23;;;;;;;22.24;70.61;99717.38;5072346;28;20188;-68
2023/09/26 01:15:09;;;;;;;12.93;8.00;;;;;;;22.24;70.90;99721.97;5073260;28;20245;-68
2023/09/26 01:17:36;;;;;;;24.87;9.47;;;;;;;22.23;70.76;99723.88;5091978;28;20196;-68
2023/09/26 01:20:11;;;;;;;18.43;8.87;;;;;;;22.20;70.97;99727.09;5092275;28;20634;-68
2023/09/26 01:22:43;;;;;;;22.37;8.90;;;;;;;22.19;71.03;99728.19;5092289;28;20249;-68
2023/09/26 01:25:12;;;;;;;15.37;9.03;;;;;;;22.20;71.25;99732.50;5089676;28;20188;-68
2023/09/26 01:27:38;;;;;;;17.90;8.53;;;;;;;22.19;71.42;99730.88;5072080;28;20201;-71
2023/09/26 01:30:07;;;;;;;29.67;9.23;;;;;;;22.13;72.25;99726.53;5071434;28;20668;-69
2023/09/26 01:32:33;;;;;;;19.60;8.83;;;;;;;22.00;72.65;99724.31;5071962;28;20200;-71
2023/09/26 01:35:00;;;;;;;22.23;8.63;;;;;;;21.99;72.46;99722.69;5086004;28;20250;-69
2023/09/26 01:37:27;;;;;;;29.40;9.33;;;;;;;21.99;72.97;99727.28;5092063;28;20244;-69
2023/09/26 01:39:53;;;;;;;17.57;8.10;;;;;;;21.92;73.48;99729.44;5092148;28;20264;-68
2023/09/26 01:42:22;;;;;;;20.20;8.47;;;;;;;21.88;73.45;99728.31;5091250;28;20317;-68
2023/09/26 01:44:48;;;;;;;13.80;7.77;;;;;;;21.88;73.22;99729.13;5079297;28;20188;-67
2023/09/26 01:47:27;;;;;;;18.30;7.77;;;;;;;21.88;72.99;99731.03;5071795;28;20269;-69
2023/09/26 01:49:54;;;;;;;14.50;6.70;;;;;;;21.87;72.79;99732.09;5071869;28;20211;-68
2023/09/26 01:52:21;;;;;;;20.47;7.07;;;;;;;21.85;72.58;99731.56;5076491;28;20187;-67
2023/09/26 01:54:47;;;;;;;12.47;6.70;;;;;;;21.78;72.61;99734.50;5091591;28;20561;-68
2023/09/26 01:57:14;;;;;;;11.03;6.70;;;;;;;21.71;72.90;99725.78;5091427;28;20566;-67
2023/09/26 01:59:42;;;;;;;12.90;6.40;;;;;;;21.62;72.77;99735.44;5091063;28;20730;-68
2023/09/26 02:02:09;;;;;;;13.93;6.80;;;;;;;21.51;72.74;99728.34;5076861;28;20245;-68
2023/09/26 02:04:36;;;;;;;10.23;6.70;;;;;;;21.39;72.96;99726.94;5071348;28;20275;-68
2023/09/26 02:07:02;;;;;;;12.93;6.50;;;;;;;21.14;73.57;99727.53;5071412;28;20599;-68
2023/09/26 02:09:29;;;;;;;12.73;6.37;;;;;;;20.99;74.38;99727.41;5091458;28;20655;-68
2023/09/26 02:11:55;;;;;;;7.57;6.00;;;;;;;20.99;74.76;99727.41;5083962;28;20643;-68
2023/09/26 02:14:22;;;;;;;12.83;6.37;;;;;;;20.95;74.89;99722.78;5091308;28;20191;-69
2023/09/26 02:16:50;;;;;;;10.60;6.70;;;;;;;20.88;75.33;99733.78;5090925;28;20191;-69
2023/09/26 02:19:17;;;;;;;11.47;6.73;;;;;;;20.83;75.49;99743.72;5091412;28;20195;-69
2023/09/26 02:21:43;;;;;;;9.13;6.73;;;;;;;20.76;75.75;99735.84;5090845;28;20187;-69
2023/09/26 02:24:10;;;;;;;14.63;7.00;;;;;;;20.66;75.97;99727.63;5091179;28;20241;-69
2023/09/26 02:26:37;;;;;;;17.13;6.33;;;;;;;20.59;76.10;99735.13;5091462;28;20237;-68
2023/09/26 02:29:03;;;;;;;10.67;6.40;;;;;;;20.48;76.18;99720.72;5091618;28;20284;-68
2023/09/26 02:31:30;;;;;;;10.13;6.20;;;;;;;20.50;76.15;99731.25;5084056;28;20781;-68
2023/09/26 02:33:58;;;;;;;18.30;7.37;;;;;;;20.43;76.51;99736.03;5071337;28;20253;-68
2023/09/26 02:36:25;;;;;;;12.90;6.47;;;;;;;20.26;76.80;99719.13;5070886;28;20250;-68
2023/09/26 02:38:51;;;;;;;14.43;6.80;;;;;;;20.34;77.03;99732.16;5071058;28;20199;-67
2023/09/26 02:41:18;;;;;;;16.47;6.60;;;;;;;20.31;77.30;99728.06;5089252;28;20263;-68
2023/09/26 02:43:45;;;;;;;15.53;6.73;;;;;;;20.26;77.82;99729.91;5094139;28;20256;-67
2023/09/26 02:46:11;;;;;;;19.80;8.03;;;;;;;20.28;77.71;99723.19;5094955;28;20260;-68
2023/09/26 02:48:38;;;;;;;19.00;7.10;;;;;;;20.32;78.02;99735.13;5094470;28;20244;-67
2023/09/26 02:51:06;;;;;;;17.13;6.63;;;;;;;20.41;77.69;99740.84;5093517;28;20191;-68
2023/09/26 02:53:33;;;;;;;16.57;7.27;;;;;;;20.46;77.56;99740.94;5093824;28;20183;-70
2023/09/26 02:55:59;;;;;;;11.17;7.57;;;;;;;20.34;77.79;99735.66;5094600;28;20276;-67
2023/09/26 02:58:26;;;;;;;7.57;6.43;;;;;;;20.23;77.54;99735.81;5094334;28;20253;-68
2023/09/26 03:00:53;;;;;;;11.93;6.67;;;;;;;20.21;77.93;99733.34;5080877;28;20191;-67
2023/09/26 03:03:20;;;;;;;12.50;6.77;;;;;;;20.25;77.76;99739.88;5074077;28;20192;-67
2023/09/26 03:05:49;;;;;;;12.07;6.13;;;;;;;20.24;77.43;99740.13;5074346;28;20245;-67
2023/09/26 03:08:17;;;;;;;12.60;7.00;;;;;;;20.27;77.71;99739.63;5083145;28;20219;-70
2023/09/26 03:10:44;;;;;;;14.97;6.97;;;;;;;20.35;77.47;99744.59;5092975;28;20211;-70
2023/09/26 03:13:11;;;;;;;7.90;6.07;;;;;;;20.41;77.22;99743.56;5094054;28;20244;-68
2023/09/26 03:15:38;;;;;;;14.87;6.90;;;;;;;20.44;76.93;99751.16;5093681;28;20748;-68
2023/09/26 03:18:05;;;;;;;12.23;6.63;;;;;;;20.45;76.77;99744.69;5093232;28;20250;-69
2023/09/26 03:20:33;;;;;;;8.27;5.90;;;;;;;20.42;76.40;99756.00;5073429;28;20257;-68
2023/09/26 03:22:59;;;;;;;12.97;6.53;;;;;;;20.31;76.12;99751.56;5073596;28;20200;-69
2023/09/26 03:25:27;;;;;;;16.13;6.47;;;;;;;20.19;77.01;99735.50;5073770;28;20192;-69
2023/09/26 03:28:02;;;;;;;12.43;6.60;;;;;;;20.09;77.22;99729.97;5073686;28;20192;-68
2023/09/26 03:30:28;;;;;;;13.47;6.77;;;;;;;20.05;77.49;99733.41;5073923;28;20290;-68
2023/09/26 03:32:55;;;;;;;15.77;6.63;;;;;;;20.05;77.50;99733.41;5073548;28;20235;-68
2023/09/26 03:35:22;;;;;;;10.37;6.57;;;;;;;20.06;77.70;99752.00;5073540;28;20192;-69
2023/09/26 03:37:48;;;;;;;10.00;6.57;;;;;;;20.06;77.51;99738.53;5073422;28;20261;-69
2023/09/26 03:40:15;;;;;;;17.40;7.67;;;;;;;20.04;77.59;99740.69;5090555;28;20260;-70
2023/09/26 03:42:43;;;;;;;8.20;6.53;;;;;;;20.06;77.35;99735.03;5091029;28;20219;-68
2023/09/26 03:45:10;;;;;;;18.87;8.50;;;;;;;20.07;77.65;99736.66;5093539;28;20196;-68
2023/09/26 03:47:37;;;;;;;11.97;7.10;;;;;;;20.10;77.52;99750.47;5093238;28;20257;-68
2023/09/26 03:50:04;;;;;;;13.87;7.70;;;;;;;20.12;77.71;99750.22;5093439;28;20215;-68
2023/09/26 03:52:30;;;;;;;18.00;7.87;;;;;;;20.00;77.27;99736.84;5085451;28;20619;-68
2023/09/26 03:54:57;;;;;;;13.97;7.23;;;;;;;20.03;77.11;99752.53;5073122;28;20261;-68
2023/09/26 03:57:24;;;;;;;24.00;7.57;;;;;;;20.02;77.49;99756.28;5072897;28;20257;-75
2023/09/26 03:59:52;;;;;;;19.60;8.20;;;;;;;20.02;77.37;99748.19;5072573;28;20196;-71
2023/09/26 04:02:18;;;;;;;14.20;7.57;;;;;;;20.05;77.19;99752.28;5090983;28;20244;-68
2023/09/26 04:04:45;;;;;;;16.17;7.47;;;;;;;20.03;77.37;99751.72;5092391;28;20799;-68
2023/09/26 04:07:12;;;;;;;21.43;8.30;;;;;;;20.07;77.49;99759.06;5091402;28;20574;-68
2023/09/26 04:09:39;;;;;;;16.73;7.90;;;;;;;20.05;77.42;99760.38;5072272;28;20222;-70
2023/09/26 04:12:06;;;;;;;17.77;8.33;;;;;;;19.92;78.13;99758.03;5089987;28;20264;-67
2023/09/26 04:14:33;;;;;;;19.30;8.93;;;;;;;19.85;78.92;99758.22;5092720;28;20638;-69
2023/09/26 04:17:01;;;;;;;83.77;12.80;;;;;;;19.92;78.41;99766.13;5093167;28;20283;-68
2023/09/26 04:19:28;;;;;;;29.00;9.73;;;;;;;19.99;78.39;99772.16;5092861;28;20252;-68
2023/09/26 04:21:54;;;;;;;13.70;8.13;;;;;;;19.93;77.83;99767.78;5076436;28;20195;-69
2023/09/26 04:24:21;;;;;;;19.60;8.27;;;;;;;19.86;77.79;99767.94;5072163;28;20196;-68
2023/09/26 04:26:48;;;;;;;15.40;6.40;;;;;;;19.77;77.97;99779.41;5072479;28;20196;-70
2023/09/26 04:29:15;;;;;;;21.37;7.40;;;;;;;19.70;78.07;99778.75;5072188;28;20274;-71
2023/09/26 04:31:41;;;;;;;10.57;7.33;;;;;;;19.74;78.15;99780.72;5085395;28;20191;-69
2023/09/26 04:34:09;;;;;;;12.20;7.23;;;;;;;19.75;78.04;99781.53;5092747;28;20187;-69
2023/09/26 04:36:36;;;;;;;15.73;7.97;;;;;;;19.82;78.18;99779.47;5092511;28;20252;-68
2023/09/26 04:39:03;;;;;;;19.00;7.40;;;;;;;19.75;77.26;99776.13;5091818;28;20187;-69
2023/09/26 04:41:29;;;;;;;17.27;6.73;;;;;;;19.67;77.23;99776.56;5080179;28;20227;-68
2023/09/26 04:43:56;;;;;;;13.33;7.20;;;;;;;19.69;77.08;99777.13;5071396;28;20191;-70
2023/09/26 04:46:23;;;;;;;14.47;7.20;;;;;;;19.62;77.40;99782.72;5072130;28;20195;-68
2023/09/26 04:48:49;;;;;;;12.53;7.43;;;;;;;19.58;78.13;99778.88;5075051;28;20240;-69
2023/09/26 04:51:20;;;;;;;16.97;8.27;;;;;;;19.60;78.25;99782.13;5091987;28;20313;-69
2023/09/26 04:53:47;;;;;;;13.47;7.40;;;;;;;19.62;78.55;99782.72;5091741;28;20273;-70
2023/09/26 04:56:14;;;;;;;15.80;8.37;;;;;;;19.73;78.90;99783.66;5085993;28;20234;-71
2023/09/26 04:58:40;;;;;;;17.17;8.67;;;;;;;19.78;79.20;99778.34;5071460;28;20260;-66
2023/09/26 05:01:13;;;;;;;12.50;7.93;;;;;;;19.88;80.01;99775.78;5073177;28;20249;-66
2023/09/26 05:03:39;;;;;;;12.60;7.83;;;;;;;20.07;79.40;99780.63;5085414;28;20257;-65
2023/09/26 05:06:08;;;;;;;9.60;7.57;;;;;;;20.31;77.79;99786.63;5080656;28;20191;-67
2023/09/26 05:08:37;;;;;;;28.23;8.37;;;;;;;20.52;77.34;99793.88;5084284;28;20180;-67
2023/09/26 05:11:03;;;;;;;20.17;8.10;;;;;;;20.69;76.88;99800.00;5080543;28;20215;-68
2023/09/26 05:13:30;;;;;;;14.40;7.53;;;;;;;20.83;75.65;99800.44;5086701;28;20191;-66
2023/09/26 05:15:57;;;;;;;19.43;7.57;;;;;;;20.98;75.02;99797.91;5090971;28;20252;-66
2023/09/26 05:18:23;;;;;;;14.10;6.93;;;;;;;21.27;76.51;99797.34;5090939;28;20187;-69
2023/09/26 05:20:51;;;;;;;9.17;6.47;;;;;;;21.65;73.42;99804.41;5089327;28;20195;-68
2023/09/26 05:23:18;;;;;;;33.87;6.87;;;;;;;21.97;71.81;99803.28;5091000;28;20276;-67
2023/09/26 05:25:46;;;;;;;20.63;7.60;;;;;;;22.23;70.04;99813.19;5091356;28;20260;-66
2023/09/26 05:28:12;;;;;;;11.57;6.27;;;;;;;22.27;70.02;99817.00;5076907;28;20199;-69
2023/09/26 05:30:39;;;;;;;13.00;6.93;;;;;;;22.54;69.07;99820.38;5073941;28;20271;-67
2023/09/26 05:33:06;;;;;;;8.53;5.77;;;;;;;22.73;67.65;99818.81;5085113;28;20380;-70
2023/09/26 05:35:33;;;;;;;8.97;5.90;;;;;;;22.74;68.07;99820.44;5071199;28;20207;-67
2023/09/26 05:37:59;;;;;;;18.93;6.60;;;;;;;23.14;66.77;99825.94;5070859;28;20312;-66
2023/09/26 05:40:26;;;;;;;8.07;5.93;;;;;;;23.54;66.50;99822.44;5070231;28;20201;-69
2023/09/26 05:42:54;;;;;;;9.20;6.60;;;;;;;24.10;64.37;99827.53;5085802;28;20200;-67
2023/09/26 05:45:21;;;;;;;21.37;7.27;;;;;;;24.59;60.61;99833.88;5070503;28;20255;-68
2023/09/26 05:47:47;;;;;;;18.80;6.50;;;;;;;24.72;61.45;99832.50;5085390;28;20194;-67
2023/09/26 05:50:14;;;;;;;14.30;5.80;;;;;;;24.71;60.17;99834.41;5090778;28;20282;-66
2023/09/26 05:52:41;;;;;;;12.37;6.77;;;;;;;25.12;58.51;99834.97;5089835;28;20195;-67
2023/09/26 05:55:08;;;;;;;18.47;6.40;;;;;;;25.26;58.78;99843.28;5090358;28;20256;-67
2023/09/26 05:57:35;;;;;;;16.40;6.93;;;;;;;25.24;58.12;99834.63;5090317;28;20254;-66
2023/09/26 06:00:12;;;;;;;12.70;6.33;;;;;;;25.32;58.00;99831.34;5090486;28;20202;-68
2023/09/26 06:02:38;;;;;;;16.93;6.77;;;;;;;25.56;57.82;99843.13;5075257;28;20180;-69
2023/09/26 06:05:06;;;;;;;22.80;7.07;;;;;;;26.05;55.33;99851.94;5072983;28;20192;-68
2023/09/26 06:07:32;;;;;;;15.60;6.90;;;;;;;26.16;53.76;99856.16;5073666;28;20268;-68
2023/09/26 06:09:59;;;;;;;15.87;6.40;;;;;;;25.91;54.86;99850.94;5090529;28;20227;-69
2023/09/26 06:12:26;;;;;;;13.37;6.70;;;;;;;25.76;55.57;99849.16;5089463;28;20195;-68
2023/09/26 06:14:53;;;;;;;13.27;6.10;;;;;;;25.94;56.44;99845.78;5090592;28;20211;-67
2023/09/26 06:17:21;;;;;;;11.63;6.90;;;;;;;26.29;54.73;99850.03;5091348;28;20662;-69
2023/09/26 06:19:48;;;;;;;11.37;6.70;;;;;;;26.73;52.46;99861.50;5093693;28;20306;-70
2023/09/26 06:22:14;;;;;;;9.50;6.20;;;;;;;26.67;52.28;99865.41;5084039;28;20253;-70
2023/09/26 06:24:41;;;;;;;19.13;6.63;;;;;;;26.73;53.05;99861.50;5072744;28;20260;-68
2023/09/26 06:27:08;;;;;;;16.67;6.97;;;;;;;26.79;51.85;99855.69;5073601;28;20557;-67
2023/09/26 06:29:38;;;;;;;8.40;6.27;;;;;;;26.85;52.73;99861.88;5073514;28;20298;-68
2023/09/26 06:32:05;;;;;;;14.23;6.13;;;;;;;26.80;53.12;99859.25;5081684;28;20571;-67
2023/09/26 06:34:34;;;;;;;36.73;7.40;;;;;;;26.89;52.00;99868.38;5094389;28;20195;-68
2023/09/26 06:37:01;;;;;;;10.60;6.13;;;;;;;26.94;51.06;99860.13;5088447;28;20191;-68
2023/09/26 06:39:27;;;;;;;8.33;5.57;;;;;;;26.80;50.75;99864.69;5077243;28;20200;-71
2023/09/26 06:41:54;;;;;;;13.60;6.10;;;;;;;26.75;54.13;99856.59;5082900;28;20219;-68
2023/09/26 06:44:21;;;;;;;11.93;6.13;;;;;;;26.89;52.78;99860.19;5084997;28;20591;-69
2023/09/26 06:46:48;;;;;;;12.90;5.27;;;;;;;27.10;51.49;99870.53;5082931;28;20191;-69
2023/09/26 06:49:14;;;;;;;16.57;5.73;;;;;;;27.15;51.70;99872.41;5093644;28;20655;-72
2023/09/26 06:51:42;;;;;;;13.10;6.07;;;;;;;27.17;50.37;99864.72;5087722;28;20224;-69
2023/09/26 06:54:09;;;;;;;17.77;7.10;;;;;;;27.11;50.60;99871.38;5079859;28;20253;-69
2023/09/26 06:56:36;;;;;;;13.20;6.63;;;;;;;27.09;52.85;99863.47;5083206;28;20221;-68
2023/09/26 06:59:02;;;;;;;18.67;7.23;;;;;;;27.09;50.79;99862.66;5080188;28;20195;-66
2023/09/26 07:01:29;;;;;;;14.03;6.37;;;;;;;27.22;50.60;99870.13;5081180;28;20203;-67
2023/09/26 07:03:56;;;;;;;17.97;6.77;;;;;;;27.34;50.60;99873.22;5080742;28;20192;-65
2023/09/26 07:06:22;;;;;;;18.33;6.47;;;;;;;27.69;49.99;99867.19;5080270;28;20196;-68
2023/09/26 07:08:54;;;;;;;11.60;6.70;;;;;;;27.77;49.86;99867.31;5083960;28;20260;-69
2023/09/26 07:11:22;;;;;;;36.87;7.00;;;;;;;27.73;49.94;99862.75;5078800;28;20200;-68
2023/09/26 07:13:49;;;;;;;15.50;6.43;;;;;;;27.83;49.75;99862.59;5079824;28;20295;-67
2023/09/26 07:16:16;;;;;;;11.80;6.53;;;;;;;27.85;48.45;99863.13;5080173;28;20208;-69
2023/09/26 07:18:42;;;;;;;15.27;7.20;;;;;;;28.15;49.55;99854.38;5086024;28;20191;-67
2023/09/26 07:21:09;;;;;;;9.43;5.83;;;;;;;28.62;47.84;99849.34;5081619;28;20257;-69
2023/09/26 07:23:37;;;;;;;10.93;6.07;;;;;;;28.50;44.98;99861.94;5079677;28;20231;-67
2023/09/26 07:26:13;;;;;;;15.97;6.83;;;;;;;28.30;47.97;99851.38;5082264;28;20196;-68
2023/09/26 07:28:42;;;;;;;14.57;6.60;;;;;;;28.20;46.09;99852.38;5080779;28;20191;-67
2023/09/26 07:31:09;;;;;;;13.57;7.03;;;;;;;28.05;47.69;99838.19;5081026;28;20267;-73
2023/09/26 07:33:36;;;;;;;12.00;5.80;;;;;;;28.22;46.57;99850.13;5081423;27;20192;-67
2023/09/26 07:36:04;;;;;;;11.77;5.80;;;;;;;28.29;46.32;99850.53;5078647;28;20199;-68
2023/09/26 07:38:32;;;;;;;15.57;5.40;;;;;;;28.37;47.33;99857.22;5058652;28;20658;-67
2023/09/26 07:40:59;;;;;;;17.43;6.60;;;;;;;28.35;47.14;99856.72;5084259;28;20269;-67
2023/09/26 07:43:29;;;;;;;13.27;6.43;;;;;;;28.21;46.70;99853.16;5080060;28;20249;-67
2023/09/26 07:45:58;;;;;;;20.80;6.97;;;;;;;28.13;46.90;99857.41;5081148;28;20263;-74
2023/09/26 07:48:25;;;;;;;10.17;6.00;;;;;;;28.21;46.35;99861.34;5083009;28;20191;-67
2023/09/26 07:50:52;;;;;;;16.27;6.03;;;;;;;28.35;45.83;99862.19;5083438;28;20200;-66
2023/09/26 07:53:19;;;;;;;15.63;5.80;;;;;;;28.46;44.66;99866.38;5075896;28;20207;-67
2023/09/26 07:55:47;;;;;;;23.77;7.07;;;;;;;28.59;45.26;99860.09;5081828;28;20191;-70
2023/09/26 07:58:14;;;;;;;7.93;6.13;;;;;;;28.66;44.40;99866.75;5076621;28;20257;-69
2023/09/26 08:00:42;;;;;;;15.87;6.33;;;;;;;28.71;43.44;99858.44;5070116;28;20230;-72
2023/09/26 08:03:10;;;;;;;15.07;6.20;;;;;;;28.82;43.02;99859.03;5077385;28;20192;-67
2023/09/26 08:05:36;;;;;;;16.87;5.93;;;;;;;28.87;42.99;99857.00;5077596;28;20196;-66
2023/09/26 08:08:04;;;;;;;14.97;5.47;;;;;;;29.12;42.99;99856.47;5075858;28;20253;-68
2023/09/26 08:10:31;;;;;;;13.37;5.90;;;;;;;29.51;42.06;99855.81;5074941;28;20234;-66
2023/09/26 08:12:58;;;;;;;11.23;5.67;;;;;;;29.64;42.10;99854.97;5077536;28;20283;-66
2023/09/26 08:15:25;;;;;;;14.03;5.80;;;;;;;29.90;40.96;99850.47;5078802;28;20237;-66
2023/09/26 08:17:53;;;;;;;17.77;6.17;;;;;;;30.09;40.70;99850.25;5077335;28;20196;-66
2023/09/26 08:20:19;;;;;;;15.80;6.57;;;;;;;30.23;40.43;99857.28;5079770;28;20191;-66
2023/09/26 08:22:46;;;;;;;12.20;5.80;;;;;;;30.26;40.37;99842.94;5080421;28;20196;-66
2023/09/26 08:25:13;;;;;;;19.57;6.30;;;;;;;30.16;40.05;99858.84;5080942;28;20187;-66
2023/09/26 08:27:40;;;;;;;18.40;6.10;;;;;;;30.10;40.43;99858.16;5084893;28;20264;-66
2023/09/26 08:30:11;;;;;;;15.50;6.00;;;;;;;30.22;40.09;99847.44;5082197;28;20278;-66
2023/09/26 08:32:38;;;;;;;13.40;5.30;;;;;;;30.45;39.45;99854.44;5092824;28;20183;-67
2023/09/26 08:35:07;;;;;;;16.60;5.37;;;;;;;30.39;39.66;99853.00;5086650;28;20199;-66
2023/09/26 08:37:34;;;;;;;13.77;5.60;;;;;;;30.58;39.42;99847.25;5084510;28;20622;-67
2023/09/26 08:40:01;;;;;;;21.50;5.17;;;;;;;30.67;39.11;99850.81;5067039;28;20192;-67
2023/09/26 08:42:28;;;;;;;16.77;5.43;;;;;;;30.64;38.28;99846.78;5086692;28;20718;-66
2023/09/26 08:44:56;;;;;;;14.23;3.93;;;;;;;30.69;38.17;99843.09;5081157;28;20516;-68
2023/09/26 08:47:25;;;;;;;12.23;5.10;;;;;;;30.64;38.94;99837.72;5073795;28;20248;-66
2023/09/26 08:49:54;;;;;;;15.40;5.30;;;;;;;30.39;38.38;99835.72;5075702;28;20199;-67
2023/09/26 08:52:23;;;;;;;14.80;5.37;;;;;;;30.25;40.07;99838.56;5087861;28;20222;-67
2023/09/26 08:54:49;;;;;;;18.93;5.00;;;;;;;30.35;39.08;99838.31;5089928;28;20200;-67
2023/09/26 08:57:17;;;;;;;21.50;5.20;;;;;;;30.18;39.44;99830.03;5087936;28;20621;-67
2023/09/26 08:59:46;;;;;;;22.13;5.47;;;;;;;30.33;40.35;99829.56;5089771;28;20194;-67
2023/09/26 09:02:13;;;;;;;16.77;4.67;;;;;;;30.47;38.88;99830.28;5079180;28;20556;-68
2023/09/26 09:04:42;;;;;;;14.33;4.53;;;;;;;30.44;39.37;99825.41;5069547;28;20671;-67
2023/09/26 09:07:09;;;;;;;16.60;4.40;;;;;;;30.28;39.38;99826.97;5077467;28;20202;-67
2023/09/26 09:09:37;;;;;;;14.37;5.33;;;;;;;30.06;39.19;99828.94;5074695;28;20711;-66
2023/09/26 09:12:21;;;;;;;14.63;5.13;;;;;;;30.25;39.34;99829.56;5078296;28;20340;-67
2023/09/26 09:14:48;;;;;;;17.17;4.97;;;;;;;30.04;40.49;99829.25;5088494;28;20235;-67
2023/09/26 09:17:14;;;;;;;13.73;5.10;;;;;;;29.60;40.40;99823.84;5088691;28;20249;-69
2023/09/26 09:19:46;;;;;;;11.07;4.50;;;;;;;29.67;41.26;99818.75;5088322;28;20195;-66
2023/09/26 09:22:17;;;;;;;16.17;5.17;;;;;;;29.90;40.14;99820.34;5067130;28;20304;-71
2023/09/26 09:24:53;;;;;;;17.70;5.33;;;;;;;29.59;40.99;99818.72;5068743;28;20196;-78
2023/09/26 09:27:29;;;;;;;16.23;4.80;;;;;;;29.74;40.97;99815.56;5069108;28;20223;-71
2023/09/26 09:30:04;;;;;;;9.53;4.57;;;;;;;29.71;40.88;99806.03;5071128;28;21749;-71
2023/09/26 09:32:31;;;;;;;17.13;4.80;;;;;;;29.66;40.37;99808.91;5088589;28;20248;-70
2023/09/26 09:34:58;;;;;;;13.63;4.73;;;;;;;29.92;39.13;99822.78;5089808;28;20244;-71
2023/09/26 09:37:25;;;;;;;22.07;4.77;;;;;;;30.12;38.35;99811.22;5085008;28;20191;-77
2023/09/26 09:39:53;;;;;;;14.63;4.37;;;;;;;30.48;37.98;99818.19;5072382;28;20196;-68
2023/09/26 09:42:19;;;;;;;12.57;4.63;;;;;;;30.65;37.36;99815.47;5075329;28;20293;-69
2023/09/26 09:44:46;;;;;;;18.60;4.50;;;;;;;30.70;37.50;99812.59;5083147;28;20232;-69
2023/09/26 09:47:19;;;;;;;14.80;4.60;;;;;;;30.39;37.46;99809.13;5079773;28;20714;-68
2023/09/26 09:49:47;;;;;;;13.03;4.40;;;;;;;29.90;38.38;99803.09;5078003;28;20229;-70
2023/09/26 09:52:17;;;;;;;17.03;4.80;;;;;;;29.82;39.49;99807.41;5071549;28;20230;-71
2023/09/26 09:54:45;;;;;;;20.80;5.60;;;;;;;30.16;38.51;99791.13;5072040;28;20737;-72
2023/09/26 09:57:15;;;;;;;21.93;5.10;;;;;;;29.93;38.49;99788.75;5082306;28;20222;-71
2023/09/26 09:59:43;;;;;;;14.43;4.17;;;;;;;29.42;39.57;99800.19;5095259;28;20279;-72
2023/09/26 10:02:13;;;;;;;11.60;4.33;;;;;;;29.69;39.20;99786.41;5093545;28;20286;-65
2023/09/26 10:04:40;;;;;;;16.80;4.70;;;;;;;30.14;38.84;99787.91;5095150;28;20207;-64
2023/09/26 10:07:09;;;;;;;16.33;4.93;;;;;;;30.35;37.96;99788.94;5080821;28;20336;-65
2023/09/26 10:09:37;;;;;;;10.63;4.30;;;;;;;30.63;36.50;99776.59;5083992;28;20320;-65
2023/09/26 10:12:05;;;;;;;10.70;4.87;;;;;;;30.38;37.67;99777.31;5083628;28;20227;-66
2023/09/26 10:14:33;;;;;;;16.60;4.70;;;;;;;30.39;38.49;99783.63;5085153;28;20613;-64
2023/09/26 10:17:02;;;;;;;11.07;4.90;;;;;;;30.52;37.06;99785.44;5087659;28;20674;-64
2023/09/26 10:19:29;;;;;;;12.30;4.70;;;;;;;30.66;37.88;99777.88;5088257;28;20195;-65
2023/09/26 10:22:14;;;;;;;12.87;4.53;;;;;;;30.66;37.08;99777.88;5082934;28;20267;-64
2023/09/26 10:24:49;;;;;;;20.27;4.73;;;;;;;30.62;38.59;99772.22;5083772;28;20256;-64
2023/09/26 10:27:23;;;;;;;12.63;4.47;;;;;;;30.60;36.52;99773.66;5083445;28;20252;-64
2023/09/26 10:29:53;;;;;;;14.20;5.23;;;;;;;30.67;36.84;99783.06;5083333;28;20270;-64
2023/09/26 10:32:31;;;;;;;12.77;4.67;;;;;;;30.47;37.42;99778.19;5088136;28;20736;-64
2023/09/26 10:34:58;;;;;;;10.63;4.13;;;;;;;30.32;37.67;99770.38;5083727;28;20176;-64
2023/09/26 10:37:27;;;;;;;16.13;4.30;;;;;;;30.17;37.46;99767.28;5069782;28;20195;-63
2023/09/26 10:39:54;;;;;;;8.27;3.60;;;;;;;30.04;38.00;99771.72;5084717;28;20196;-63
2023/09/26 10:42:24;;;;;;;10.10;4.30;;;;;;;29.95;38.39;99759.91;5094055;28;20310;-64
2023/09/26 10:44:52;;;;;;;12.83;4.00;;;;;;;29.40;38.90;99766.88;5090498;28;20203;-65
2023/09/26 10:47:23;;;;;;;15.27;4.90;;;;;;;29.32;40.21;99770.34;5074409;28;20199;-64
2023/09/26 10:49:50;;;;;;;12.90;4.80;;;;;;;29.31;40.11;99768.72;5091364;28;20183;-63
2023/09/26 10:52:17;;;;;;;12.40;4.40;;;;;;;29.18;40.63;99747.69;5094605;28;20775;-63
2023/09/26 10:54:44;;;;;;;9.13;3.80;;;;;;;29.33;40.08;99761.00;5094577;28;20264;-63
2023/09/26 10:57:18;;;;;;;16.67;4.40;;;;;;;29.52;39.74;99763.53;5094245;28;20195;-64
2023/09/26 10:59:45;;;;;;;9.53;4.27;;;;;;;29.24;40.03;99751.94;5079759;28;20287;-64
2023/09/26 11:02:13;;;;;;;15.40;4.63;;;;;;;29.07;40.41;99757.25;5079600;28;20200;-64
2023/09/26 11:04:40;;;;;;;15.80;4.73;;;;;;;29.05;41.43;99754.88;5082350;28;20188;-64
2023/09/26 11:07:07;;;;;;;8.43;3.93;;;;;;;29.15;40.60;99759.25;5084361;28;20192;-64
2023/09/26 11:09:39;;;;;;;11.70;4.53;;;;;;;29.13;40.73;99753.31;5080626;28;20242;-64
2023/09/26 11:12:05;;;;;;;12.37;3.97;;;;;;;28.90;41.23;99748.91;5079090;28;20243;-65
2023/09/26 11:14:33;;;;;;;14.43;5.10;;;;;;;28.93;41.56;99745.53;5080610;28;20617;-65
2023/09/26 11:16:59;;;;;;;15.63;4.23;;;;;;;29.05;41.61;99737.63;5088318;28;20235;-65
2023/09/26 11:19:28;;;;;;;15.63;4.60;;;;;;;29.23;41.43;99740.19;5075568;28;20636;-63
2023/09/26 11:21:56;;;;;;;17.40;4.70;;;;;;;29.06;41.32;99744.72;5073946;28;20246;-66
2023/09/26 11:24:25;;;;;;;9.23;4.00;;;;;;;29.10;40.99;99740.22;5079216;28;20253;-66
2023/09/26 11:26:53;;;;;;;14.77;4.50;;;;;;;29.24;41.47;99732.78;5092436;28;20191;-67
2023/09/26 11:29:20;;;;;;;7.13;4.67;;;;;;;29.38;41.11;99740.88;5090998;28;20223;-65